This is the latest recevied weather packets stored in our database for station/object DK2OO-6. If no packets are shown the sender has not sent any weather packets the latest 10 day(s).
| Time | Temp. | Humidity | Pressure | Rain* | Wind** | Luminosity | Snow |
|---|---|---|---|---|---|---|---|
| 1777308529 | 17.22° C | 32% | 1012.4 hPa | 0 mm | - | - | - |
| 1777305498 | 18.33° C | 31% | 1012.5 hPa | 0 mm | - | - | - |
| 1777304896 | 18.33° C | 31% | 1012.5 hPa | 0 mm | - | - | - |
| 1777303685 | 18.33° C | 31% | 1012.6 hPa | 0 mm | - | - | - |
| 1777302469 | 18.89° C | 31% | 1012.8 hPa | 0 mm | - | - | - |
| 1777301865 | 18.89° C | 32% | 1012.9 hPa | 0 mm | - | - | - |
| 1777300649 | 18.89° C | 32% | 1012.7 hPa | 0 mm | - | - | - |
| 1777297628 | 18.89° C | 32% | 1013.4 hPa | 0 mm | - | - | - |
| 1777295812 | 20° C | 33% | 1013.5 hPa | 0 mm | - | - | - |
| 1777295206 | 20° C | 34% | 1013.7 hPa | 0 mm | - | - | - |
| 1777294600 | 19.44° C | 34% | 1013.8 hPa | 0 mm | - | - | - |
| 1777289767 | 18.89° C | 36% | 1014.5 hPa | 0 mm | - | - | - |
| 1777287967 | 19.44° C | 37% | 1014.5 hPa | 0 mm | - | - | - |
| 1777286147 | 20° C | 40% | 1014.9 hPa | 0 mm | - | - | - |
| 1777283721 | 18.33° C | 41% | 1015.3 hPa | 0 mm | - | - | - |
| 1777280698 | 17.78° C | 45% | 1015.7 hPa | 0 mm | - | - | - |
| 1777279494 | 16.67° C | 47% | 1015.7 hPa | 0 mm | - | - | - |
| 1777275880 | 13.33° C | 55% | 1015.7 hPa | 0 mm | - | - | - |
| 1777274064 | 10.56° C | 63% | 1015.8 hPa | 0 mm | - | - | - |
| 1777272862 | 7.78° C | 71% | 1015.9 hPa | 0 mm | - | - | - |
| 1777268638 | 1.67° C | 74% | 1015.7 hPa | 0 mm | - | - | - |
| 1777263807 | 0.56° C | 73% | 1015.3 hPa | 0 mm | - | - | - |
| 1777262607 | 0.56° C | 72% | 1015.4 hPa | 0 mm | - | - | - |
| 1777260796 | 1.11° C | 71% | 1015.2 hPa | 0 mm | - | - | - |
| 1777258993 | 1.67° C | 71% | 1015.2 hPa | 0 mm | - | - | - |
* Rain latest hour (hover to see other rain measurements)
** Current wind speed in m/s (hover to see current wind gust speed)